sensor_id;sensor_type;location;lat;lon;timestamp;pressure;altitude;pressure_sealevel;temperature;humidity
19236;BME280;9752;54.270;12.470;2022-07-22T00:01:40;101537.00;;;15.37;100.00
19236;BME280;9752;54.270;12.470;2022-07-22T00:06:44;101543.50;;;15.29;100.00
19236;BME280;9752;54.270;12.470;2022-07-22T00:11:45;101545.06;;;15.25;100.00
19236;BME280;9752;54.270;12.470;2022-07-22T00:16:47;101546.38;;;15.17;100.00
19236;BME280;9752;54.270;12.470;2022-07-22T00:21:50;101548.91;;;15.15;100.00
19236;BME280;9752;54.270;12.470;2022-07-22T00:26:52;101560.59;;;15.22;100.00
19236;BME280;9752;54.270;12.470;2022-07-22T00:31:54;101549.66;;;15.29;100.00
19236;BME280;9752;54.270;12.470;2022-07-22T00:36:57;101555.78;;;15.30;100.00
19236;BME280;9752;54.270;12.470;2022-07-22T00:41:59;101540.00;;;15.28;100.00
19236;BME280;9752;54.270;12.470;2022-07-22T00:47:01;101553.66;;;15.39;100.00
19236;BME280;9752;54.270;12.470;2022-07-22T00:52:05;101555.13;;;15.50;100.00
19236;BME280;9752;54.270;12.470;2022-07-22T00:57:07;101550.13;;;15.55;100.00
19236;BME280;9752;54.270;12.470;2022-07-22T01:02:09;101542.66;;;15.62;100.00
19236;BME280;9752;54.270;12.470;2022-07-22T01:07:12;101544.63;;;15.67;100.00
19236;BME280;9752;54.270;12.470;2022-07-22T01:12:15;101529.97;;;15.70;100.00
19236;BME280;9752;54.270;12.470;2022-07-22T01:17:17;101529.59;;;15.79;100.00
19236;BME280;9752;54.270;12.470;2022-07-22T01:22:20;101542.19;;;15.86;100.00
19236;BME280;9752;54.270;12.470;2022-07-22T01:27:22;101537.09;;;15.89;100.00
19236;BME280;9752;54.270;12.470;2022-07-22T01:32:24;101542.41;;;15.91;100.00
19236;BME280;9752;54.270;12.470;2022-07-22T01:37:27;101552.19;;;15.95;100.00
19236;BME280;9752;54.270;12.470;2022-07-22T01:42:30;101539.88;;;15.92;100.00
19236;BME280;9752;54.270;12.470;2022-07-22T01:47:32;101545.56;;;16.02;100.00
19236;BME280;9752;54.270;12.470;2022-07-22T01:52:35;101549.22;;;16.05;100.00
19236;BME280;9752;54.270;12.470;2022-07-22T01:57:38;101549.50;;;15.93;100.00
19236;BME280;9752;54.270;12.470;2022-07-22T02:02:50;101565.84;;;15.89;100.00
19236;BME280;9752;54.270;12.470;2022-07-22T02:07:53;101566.78;;;15.90;100.00
19236;BME280;9752;54.270;12.470;2022-07-22T02:13:02;101574.47;;;16.05;100.00
19236;BME280;9752;54.270;12.470;2022-07-22T02:18:12;101576.09;;;16.19;100.00
19236;BME280;9752;54.270;12.470;2022-07-22T02:23:18;101580.06;;;16.29;100.00
19236;BME280;9752;54.270;12.470;2022-07-22T02:28:20;101586.13;;;16.28;100.00
19236;BME280;9752;54.270;12.470;2022-07-22T02:33:22;101587.09;;;16.30;100.00
19236;BME280;9752;54.270;12.470;2022-07-22T02:38:25;101602.22;;;16.35;100.00
19236;BME280;9752;54.270;12.470;2022-07-22T02:43:28;101606.03;;;16.42;100.00
19236;BME280;9752;54.270;12.470;2022-07-22T02:48:30;101616.06;;;16.51;100.00
19236;BME280;9752;54.270;12.470;2022-07-22T02:53:33;101618.28;;;16.61;100.00
19236;BME280;9752;54.270;12.470;2022-07-22T02:58:36;101616.81;;;16.66;100.00
19236;BME280;9752;54.270;12.470;2022-07-22T03:03:38;101602.34;;;16.74;100.00
19236;BME280;9752;54.270;12.470;2022-07-22T03:08:41;101612.31;;;16.82;100.00
19236;BME280;9752;54.270;12.470;2022-07-22T03:13:43;101609.19;;;16.89;100.00
19236;BME280;9752;54.270;12.470;2022-07-22T03:18:45;101615.25;;;16.88;100.00
19236;BME280;9752;54.270;12.470;2022-07-22T03:23:48;101621.53;;;16.91;100.00
19236;BME280;9752;54.270;12.470;2022-07-22T03:28:54;101622.56;;;16.95;100.00
19236;BME280;9752;54.270;12.470;2022-07-22T03:33:56;101630.72;;;17.01;100.00
19236;BME280;9752;54.270;12.470;2022-07-22T03:39:04;101624.78;;;17.05;100.00
19236;BME280;9752;54.270;12.470;2022-07-22T03:44:06;101614.00;;;17.17;100.00
19236;BME280;9752;54.270;12.470;2022-07-22T03:49:08;101624.53;;;17.18;100.00
19236;BME280;9752;54.270;12.470;2022-07-22T03:54:11;101612.78;;;17.28;100.00
19236;BME280;9752;54.270;12.470;2022-07-22T03:59:16;101609.66;;;17.37;100.00
19236;BME280;9752;54.270;12.470;2022-07-22T04:04:18;101607.59;;;17.49;100.00
19236;BME280;9752;54.270;12.470;2022-07-22T04:09:21;101611.94;;;17.49;100.00
19236;BME280;9752;54.270;12.470;2022-07-22T04:14:24;101615.06;;;17.60;100.00
19236;BME280;9752;54.270;12.470;2022-07-22T04:19:26;101611.91;;;17.47;100.00
19236;BME280;9752;54.270;12.470;2022-07-22T04:24:31;101606.31;;;17.40;100.00
19236;BME280;9752;54.270;12.470;2022-07-22T04:29:33;101603.31;;;17.32;100.00
19236;BME280;9752;54.270;12.470;2022-07-22T04:34:35;101595.66;;;17.17;100.00
19236;BME280;9752;54.270;12.470;2022-07-22T04:39:38;101581.16;;;17.25;100.00
19236;BME280;9752;54.270;12.470;2022-07-22T04:44:40;101579.84;;;17.15;100.00
19236;BME280;9752;54.270;12.470;2022-07-22T04:49:45;101577.00;;;17.11;100.00
19236;BME280;9752;54.270;12.470;2022-07-22T04:54:48;101568.06;;;17.06;100.00
19236;BME280;9752;54.270;12.470;2022-07-22T04:59:52;101565.19;;;17.01;100.00
19236;BME280;9752;54.270;12.470;2022-07-22T05:04:53;101567.28;;;17.08;100.00
19236;BME280;9752;54.270;12.470;2022-07-22T05:09:57;101561.06;;;16.87;100.00
19236;BME280;9752;54.270;12.470;2022-07-22T05:14:58;101554.91;;;16.68;100.00
19236;BME280;9752;54.270;12.470;2022-07-22T05:20:02;101558.28;;;16.48;100.00
19236;BME280;9752;54.270;12.470;2022-07-22T05:25:06;101557.03;;;16.39;100.00
19236;BME280;9752;54.270;12.470;2022-07-22T05:30:09;101564.72;;;16.36;100.00
19236;BME280;9752;54.270;12.470;2022-07-22T05:35:12;101564.13;;;16.24;100.00
19236;BME280;9752;54.270;12.470;2022-07-22T05:40:15;101566.75;;;16.24;100.00
19236;BME280;9752;54.270;12.470;2022-07-22T05:45:17;101580.06;;;16.11;100.00
19236;BME280;9752;54.270;12.470;2022-07-22T05:50:19;101578.91;;;16.06;100.00
19236;BME280;9752;54.270;12.470;2022-07-22T05:55:22;101591.88;;;15.86;100.00
19236;BME280;9752;54.270;12.470;2022-07-22T06:00:25;101591.88;;;15.70;100.00
19236;BME280;9752;54.270;12.470;2022-07-22T06:05:27;101598.25;;;15.58;100.00
19236;BME280;9752;54.270;12.470;2022-07-22T06:10:30;101638.38;;;15.59;100.00
19236;BME280;9752;54.270;12.470;2022-07-22T06:15:32;101650.06;;;15.49;100.00
19236;BME280;9752;54.270;12.470;2022-07-22T06:20:36;101651.50;;;15.44;100.00
19236;BME280;9752;54.270;12.470;2022-07-22T06:25:39;101653.00;;;15.39;100.00
19236;BME280;9752;54.270;12.470;2022-07-22T06:30:42;101667.94;;;15.41;100.00
19236;BME280;9752;54.270;12.470;2022-07-22T06:35:44;101676.06;;;15.46;100.00
19236;BME280;9752;54.270;12.470;2022-07-22T06:40:48;101679.00;;;15.52;100.00
19236;BME280;9752;54.270;12.470;2022-07-22T06:46:09;101685.34;;;15.41;100.00
19236;BME280;9752;54.270;12.470;2022-07-22T06:51:21;101678.84;;;15.66;100.00
19236;BME280;9752;54.270;12.470;2022-07-22T06:56:24;101688.75;;;15.40;100.00
19236;BME280;9752;54.270;12.470;2022-07-22T07:01:26;101688.28;;;15.47;100.00
19236;BME280;9752;54.270;12.470;2022-07-22T07:06:30;101697.94;;;15.65;100.00
19236;BME280;9752;54.270;12.470;2022-07-22T07:11:36;101698.78;;;15.80;100.00
19236;BME280;9752;54.270;12.470;2022-07-22T07:16:46;101705.31;;;15.72;100.00
19236;BME280;9752;54.270;12.470;2022-07-22T07:21:48;101704.03;;;15.80;100.00
19236;BME280;9752;54.270;12.470;2022-07-22T07:26:51;101691.59;;;15.76;100.00
19236;BME280;9752;54.270;12.470;2022-07-22T07:31:53;101684.16;;;16.00;100.00
19236;BME280;9752;54.270;12.470;2022-07-22T07:36:55;101679.34;;;16.08;100.00
19236;BME280;9752;54.270;12.470;2022-07-22T07:42:00;101682.91;;;16.26;100.00
19236;BME280;9752;54.270;12.470;2022-07-22T07:47:02;101669.75;;;16.43;100.00
19236;BME280;9752;54.270;12.470;2022-07-22T07:52:04;101672.91;;;16.53;100.00
19236;BME280;9752;54.270;12.470;2022-07-22T07:57:08;101662.06;;;16.64;100.00
19236;BME280;9752;54.270;12.470;2022-07-22T08:02:12;101654.19;;;16.98;100.00
19236;BME280;9752;54.270;12.470;2022-07-22T08:07:13;101645.22;;;17.30;100.00
19236;BME280;9752;54.270;12.470;2022-07-22T08:12:19;101636.22;;;17.45;100.00
19236;BME280;9752;54.270;12.470;2022-07-22T08:17:52;101624.94;;;17.46;100.00
19236;BME280;9752;54.270;12.470;2022-07-22T08:22:54;101632.59;;;17.61;100.00
19236;BME280;9752;54.270;12.470;2022-07-22T08:27:59;101635.59;;;17.70;100.00
19236;BME280;9752;54.270;12.470;2022-07-22T08:33:01;101616.81;;;17.22;100.00
19236;BME280;9752;54.270;12.470;2022-07-22T08:38:03;101642.16;;;17.21;100.00
19236;BME280;9752;54.270;12.470;2022-07-22T08:43:07;101633.59;;;17.45;100.00
19236;BME280;9752;54.270;12.470;2022-07-22T08:48:10;101621.53;;;17.48;100.00
19236;BME280;9752;54.270;12.470;2022-07-22T08:53:34;101635.84;;;18.15;100.00
19236;BME280;9752;54.270;12.470;2022-07-22T08:58:43;101641.63;;;17.87;100.00
19236;BME280;9752;54.270;12.470;2022-07-22T09:03:48;101639.50;;;18.82;100.00
19236;BME280;9752;54.270;12.470;2022-07-22T09:08:53;101650.56;;;18.52;100.00
19236;BME280;9752;54.270;12.470;2022-07-22T09:14:25;101660.69;;;18.43;100.00
19236;BME280;9752;54.270;12.470;2022-07-22T09:19:37;101666.09;;;17.86;100.00
19236;BME280;9752;54.270;12.470;2022-07-22T09:25:20;101641.50;;;18.24;100.00
19236;BME280;9752;54.270;12.470;2022-07-22T09:30:48;101644.97;;;18.65;100.00
19236;BME280;9752;54.270;12.470;2022-07-22T09:35:50;101647.47;;;19.28;100.00
19236;BME280;9752;54.270;12.470;2022-07-22T09:40:54;101659.84;;;18.65;100.00
19236;BME280;9752;54.270;12.470;2022-07-22T09:45:57;101664.41;;;19.35;100.00
19236;BME280;9752;54.270;12.470;2022-07-22T09:51:18;101669.25;;;19.24;100.00
19236;BME280;9752;54.270;12.470;2022-07-22T09:56:43;101686.16;;;19.08;100.00
19236;BME280;9752;54.270;12.470;2022-07-22T10:01:55;101687.22;;;19.36;100.00
19236;BME280;9752;54.270;12.470;2022-07-22T10:07:00;101687.94;;;19.55;100.00
19236;BME280;9752;54.270;12.470;2022-07-22T10:12:08;101686.28;;;20.05;100.00
19236;BME280;9752;54.270;12.470;2022-07-22T10:17:14;101693.69;;;19.44;100.00
19236;BME280;9752;54.270;12.470;2022-07-22T10:28:02;101691.91;;;19.21;100.00
19236;BME280;9752;54.270;12.470;2022-07-22T10:33:07;101695.13;;;19.14;100.00
19236;BME280;9752;54.270;12.470;2022-07-22T10:38:10;101693.09;;;19.74;100.00
19236;BME280;9752;54.270;12.470;2022-07-22T10:43:14;101701.09;;;20.01;100.00
19236;BME280;9752;54.270;12.470;2022-07-22T10:48:20;101706.56;;;18.93;100.00
19236;BME280;9752;54.270;12.470;2022-07-22T10:53:25;101704.91;;;19.63;100.00
19236;BME280;9752;54.270;12.470;2022-07-22T10:58:47;101704.34;;;19.25;100.00
19236;BME280;9752;54.270;12.470;2022-07-22T11:03:53;101703.84;;;18.49;100.00
19236;BME280;9752;54.270;12.470;2022-07-22T11:08:57;101698.88;;;19.65;100.00
19236;BME280;9752;54.270;12.470;2022-07-22T11:13:59;101716.09;;;19.57;100.00
19236;BME280;9752;54.270;12.470;2022-07-22T11:19:03;101711.13;;;19.65;100.00
19236;BME280;9752;54.270;12.470;2022-07-22T11:24:06;101716.75;;;20.72;100.00
19236;BME280;9752;54.270;12.470;2022-07-22T11:29:09;101713.06;;;20.94;100.00
19236;BME280;9752;54.270;12.470;2022-07-22T11:34:14;101710.72;;;20.25;100.00
19236;BME280;9752;54.270;12.470;2022-07-22T11:39:19;101708.50;;;20.89;100.00
19236;BME280;9752;54.270;12.470;2022-07-22T11:44:24;101711.44;;;20.71;100.00
19236;BME280;9752;54.270;12.470;2022-07-22T11:49:30;101701.88;;;21.88;100.00
19236;BME280;9752;54.270;12.470;2022-07-22T11:54:33;101707.81;;;20.17;100.00
19236;BME280;9752;54.270;12.470;2022-07-22T11:59:36;101707.28;;;20.02;100.00
19236;BME280;9752;54.270;12.470;2022-07-22T12:04:39;101701.28;;;20.32;100.00
19236;BME280;9752;54.270;12.470;2022-07-22T12:09:41;101706.88;;;20.41;100.00
19236;BME280;9752;54.270;12.470;2022-07-22T12:14:46;101708.88;;;20.48;100.00
19236;BME280;9752;54.270;12.470;2022-07-22T12:19:49;101712.72;;;21.68;100.00
19236;BME280;9752;54.270;12.470;2022-07-22T12:24:59;101730.03;;;20.75;100.00
19236;BME280;9752;54.270;12.470;2022-07-22T12:30:11;101728.28;;;20.50;100.00
19236;BME280;9752;54.270;12.470;2022-07-22T12:35:15;101722.91;;;20.98;100.00
19236;BME280;9752;54.270;12.470;2022-07-22T12:40:18;101739.16;;;20.85;100.00
19236;BME280;9752;54.270;12.470;2022-07-22T12:45:20;101739.09;;;21.11;100.00
19236;BME280;9752;54.270;12.470;2022-07-22T12:50:25;101741.44;;;20.50;100.00
19236;BME280;9752;54.270;12.470;2022-07-22T12:55:28;101739.41;;;20.41;100.00
19236;BME280;9752;54.270;12.470;2022-07-22T13:00:32;101731.75;;;21.00;100.00
19236;BME280;9752;54.270;12.470;2022-07-22T13:05:35;101732.09;;;20.58;100.00
19236;BME280;9752;54.270;12.470;2022-07-22T13:10:38;101730.00;;;20.24;100.00
19236;BME280;9752;54.270;12.470;2022-07-22T13:15:39;101733.09;;;20.62;100.00
19236;BME280;9752;54.270;12.470;2022-07-22T13:20:43;101728.19;;;20.73;100.00
19236;BME280;9752;54.270;12.470;2022-07-22T13:25:45;101722.13;;;20.25;100.00
19236;BME280;9752;54.270;12.470;2022-07-22T13:30:46;101732.72;;;20.77;100.00
19236;BME280;9752;54.270;12.470;2022-07-22T13:35:49;101729.09;;;20.73;100.00
19236;BME280;9752;54.270;12.470;2022-07-22T13:40:51;101729.34;;;20.05;100.00
19236;BME280;9752;54.270;12.470;2022-07-22T13:45:53;101742.94;;;20.66;100.00
19236;BME280;9752;54.270;12.470;2022-07-22T13:50:57;101735.72;;;21.15;100.00
19236;BME280;9752;54.270;12.470;2022-07-22T13:55:59;101748.53;;;20.51;100.00
19236;BME280;9752;54.270;12.470;2022-07-22T14:01:01;101744.81;;;20.46;100.00
19236;BME280;9752;54.270;12.470;2022-07-22T14:06:05;101746.63;;;20.47;100.00
19236;BME280;9752;54.270;12.470;2022-07-22T14:11:09;101739.03;;;20.31;100.00
19236;BME280;9752;54.270;12.470;2022-07-22T14:16:11;101740.28;;;20.42;100.00
19236;BME280;9752;54.270;12.470;2022-07-22T14:21:32;101747.59;;;20.75;100.00
19236;BME280;9752;54.270;12.470;2022-07-22T14:26:34;101747.25;;;20.40;100.00
19236;BME280;9752;54.270;12.470;2022-07-22T14:31:36;101748.22;;;21.20;100.00
19236;BME280;9752;54.270;12.470;2022-07-22T14:36:39;101739.06;;;21.65;100.00
19236;BME280;9752;54.270;12.470;2022-07-22T14:41:41;101733.63;;;21.60;100.00
19236;BME280;9752;54.270;12.470;2022-07-22T14:46:46;101761.47;;;21.79;100.00
19236;BME280;9752;54.270;12.470;2022-07-22T14:51:49;101743.97;;;21.25;100.00
19236;BME280;9752;54.270;12.470;2022-07-22T14:56:51;101738.69;;;21.53;100.00
19236;BME280;9752;54.270;12.470;2022-07-22T15:01:52;101741.28;;;21.81;100.00
19236;BME280;9752;54.270;12.470;2022-07-22T15:06:55;101754.38;;;23.06;100.00
19236;BME280;9752;54.270;12.470;2022-07-22T15:11:57;101752.66;;;23.46;100.00
19236;BME280;9752;54.270;12.470;2022-07-22T15:16:59;101754.38;;;22.07;100.00
19236;BME280;9752;54.270;12.470;2022-07-22T15:22:02;101737.38;;;22.63;100.00
19236;BME280;9752;54.270;12.470;2022-07-22T15:27:04;101748.97;;;22.04;100.00
19236;BME280;9752;54.270;12.470;2022-07-22T15:32:06;101744.53;;;23.02;100.00
19236;BME280;9752;54.270;12.470;2022-07-22T15:37:09;101751.22;;;22.87;100.00
19236;BME280;9752;54.270;12.470;2022-07-22T15:42:11;101750.69;;;24.65;100.00
19236;BME280;9752;54.270;12.470;2022-07-22T15:47:12;101755.41;;;23.90;100.00
19236;BME280;9752;54.270;12.470;2022-07-22T15:52:16;101748.00;;;23.76;100.00
19236;BME280;9752;54.270;12.470;2022-07-22T15:57:18;101744.63;;;24.25;100.00
19236;BME280;9752;54.270;12.470;2022-07-22T16:02:37;101744.06;;;24.43;100.00
19236;BME280;9752;54.270;12.470;2022-07-22T16:07:40;101748.44;;;24.41;100.00
19236;BME280;9752;54.270;12.470;2022-07-22T16:12:42;101747.09;;;22.98;100.00
19236;BME280;9752;54.270;12.470;2022-07-22T16:17:44;101737.56;;;22.70;100.00
19236;BME280;9752;54.270;12.470;2022-07-22T16:22:47;101733.44;;;24.43;100.00
19236;BME280;9752;54.270;12.470;2022-07-22T16:27:49;101735.59;;;25.17;100.00
19236;BME280;9752;54.270;12.470;2022-07-22T16:32:50;101725.66;;;22.86;100.00
19236;BME280;9752;54.270;12.470;2022-07-22T16:37:54;101732.31;;;23.05;100.00
19236;BME280;9752;54.270;12.470;2022-07-22T16:42:55;101737.41;;;21.99;100.00
19236;BME280;9752;54.270;12.470;2022-07-22T16:47:57;101737.38;;;22.63;100.00
19236;BME280;9752;54.270;12.470;2022-07-22T16:53:01;101737.78;;;23.92;100.00
19236;BME280;9752;54.270;12.470;2022-07-22T16:58:02;101735.28;;;23.19;100.00
19236;BME280;9752;54.270;12.470;2022-07-22T17:03:04;101736.00;;;24.36;100.00
19236;BME280;9752;54.270;12.470;2022-07-22T17:08:07;101740.69;;;22.54;100.00
19236;BME280;9752;54.270;12.470;2022-07-22T17:13:09;101724.47;;;22.40;100.00
19236;BME280;9752;54.270;12.470;2022-07-22T17:18:11;101728.28;;;22.86;100.00
19236;BME280;9752;54.270;12.470;2022-07-22T17:23:15;101728.56;;;24.17;100.00
19236;BME280;9752;54.270;12.470;2022-07-22T17:28:17;101728.63;;;23.36;100.00
19236;BME280;9752;54.270;12.470;2022-07-22T17:33:19;101727.47;;;24.07;100.00
19236;BME280;9752;54.270;12.470;2022-07-22T17:38:22;101728.03;;;23.12;100.00
19236;BME280;9752;54.270;12.470;2022-07-22T17:43:24;101744.44;;;24.15;100.00
19236;BME280;9752;54.270;12.470;2022-07-22T17:48:25;101726.09;;;23.05;100.00
19236;BME280;9752;54.270;12.470;2022-07-22T17:53:29;101730.47;;;24.26;100.00
19236;BME280;9752;54.270;12.470;2022-07-22T17:58:30;101733.94;;;23.38;100.00
19236;BME280;9752;54.270;12.470;2022-07-22T18:03:32;101733.38;;;22.44;100.00
19236;BME280;9752;54.270;12.470;2022-07-22T18:08:35;101738.63;;;21.80;100.00
19236;BME280;9752;54.270;12.470;2022-07-22T18:13:37;101716.91;;;21.60;100.00
19236;BME280;9752;54.270;12.470;2022-07-22T18:18:39;101719.81;;;21.69;100.00
19236;BME280;9752;54.270;12.470;2022-07-22T18:23:42;101719.63;;;19.80;100.00
19236;BME280;9752;54.270;12.470;2022-07-22T18:28:44;101710.38;;;20.65;100.00
19236;BME280;9752;54.270;12.470;2022-07-22T18:33:46;101715.22;;;19.34;100.00
19236;BME280;9752;54.270;12.470;2022-07-22T18:38:49;101704.75;;;19.58;100.00
19236;BME280;9752;54.270;12.470;2022-07-22T18:43:51;101712.78;;;18.12;100.00
19236;BME280;9752;54.270;12.470;2022-07-22T18:48:52;101711.66;;;17.31;100.00
19236;BME280;9752;54.270;12.470;2022-07-22T18:53:56;101718.13;;;16.84;100.00
19236;BME280;9752;54.270;12.470;2022-07-22T18:58:57;101713.72;;;16.66;100.00
19236;BME280;9752;54.270;12.470;2022-07-22T19:03:59;101701.34;;;16.46;100.00
19236;BME280;9752;54.270;12.470;2022-07-22T19:09:03;101703.94;;;16.28;100.00
19236;BME280;9752;54.270;12.470;2022-07-22T19:14:05;101706.38;;;16.08;100.00
19236;BME280;9752;54.270;12.470;2022-07-22T19:19:06;101701.41;;;15.96;100.00
19236;BME280;9752;54.270;12.470;2022-07-22T19:24:10;101703.94;;;15.95;100.00
19236;BME280;9752;54.270;12.470;2022-07-22T19:29:13;101709.75;;;15.73;100.00
19236;BME280;9752;54.270;12.470;2022-07-22T19:34:15;101719.34;;;15.57;100.00
19236;BME280;9752;54.270;12.470;2022-07-22T19:39:18;101718.34;;;15.55;100.00
19236;BME280;9752;54.270;12.470;2022-07-22T19:44:20;101713.63;;;15.48;100.00
19236;BME280;9752;54.270;12.470;2022-07-22T19:49:21;101718.03;;;15.49;100.00
19236;BME280;9752;54.270;12.470;2022-07-22T19:54:25;101713.06;;;15.22;100.00
19236;BME280;9752;54.270;12.470;2022-07-22T19:59:26;101717.00;;;15.31;100.00
19236;BME280;9752;54.270;12.470;2022-07-22T20:04:28;101712.09;;;15.20;100.00
19236;BME280;9752;54.270;12.470;2022-07-22T20:09:31;101712.94;;;15.05;100.00
19236;BME280;9752;54.270;12.470;2022-07-22T20:14:33;101703.63;;;15.10;100.00
19236;BME280;9752;54.270;12.470;2022-07-22T20:19:35;101704.81;;;15.15;100.00
19236;BME280;9752;54.270;12.470;2022-07-22T20:24:39;101723.81;;;15.27;100.00
19236;BME280;9752;54.270;12.470;2022-07-22T20:29:41;101714.72;;;15.20;100.00
19236;BME280;9752;54.270;12.470;2022-07-22T20:34:43;101705.19;;;15.06;100.00
19236;BME280;9752;54.270;12.470;2022-07-22T20:39:46;101708.81;;;15.08;100.00
19236;BME280;9752;54.270;12.470;2022-07-22T20:44:48;101705.28;;;15.08;100.00
19236;BME280;9752;54.270;12.470;2022-07-22T20:49:49;101708.44;;;15.02;100.00
19236;BME280;9752;54.270;12.470;2022-07-22T20:54:52;101706.13;;;14.92;100.00
19236;BME280;9752;54.270;12.470;2022-07-22T20:59:54;101704.50;;;14.94;100.00
19236;BME280;9752;54.270;12.470;2022-07-22T21:04:56;101708.66;;;14.90;100.00
19236;BME280;9752;54.270;12.470;2022-07-22T21:09:59;101717.31;;;14.89;100.00
19236;BME280;9752;54.270;12.470;2022-07-22T21:15:02;101708.66;;;14.90;100.00
19236;BME280;9752;54.270;12.470;2022-07-22T21:20:05;101702.91;;;14.66;100.00
19236;BME280;9752;54.270;12.470;2022-07-22T21:25:08;101705.94;;;14.89;100.00
19236;BME280;9752;54.270;12.470;2022-07-22T21:30:11;101704.50;;;14.94;100.00
19236;BME280;9752;54.270;12.470;2022-07-22T21:35:13;101697.75;;;14.82;100.00
19236;BME280;9752;54.270;12.470;2022-07-22T21:40:16;101696.91;;;14.98;100.00
19236;BME280;9752;54.270;12.470;2022-07-22T21:45:18;101703.06;;;14.99;100.00
19236;BME280;9752;54.270;12.470;2022-07-22T21:50:20;101699.28;;;14.79;100.00
19236;BME280;9752;54.270;12.470;2022-07-22T21:55:23;101696.97;;;14.83;100.00
19236;BME280;9752;54.270;12.470;2022-07-22T22:00:25;101694.63;;;14.58;100.00
19236;BME280;9752;54.270;12.470;2022-07-22T22:05:27;101701.63;;;14.44;100.00
19236;BME280;9752;54.270;12.470;2022-07-22T22:10:30;101691.06;;;14.43;100.00
19236;BME280;9752;54.270;12.470;2022-07-22T22:15:33;101693.50;;;14.55;100.00
19236;BME280;9752;54.270;12.470;2022-07-22T22:20:35;101682.16;;;14.54;100.00
19236;BME280;9752;54.270;12.470;2022-07-22T22:25:38;101689.91;;;14.38;100.00
19236;BME280;9752;54.270;12.470;2022-07-22T22:30:40;101676.31;;;14.14;100.00
19236;BME280;9752;54.270;12.470;2022-07-22T22:35:42;101684.16;;;14.14;100.00
19236;BME280;9752;54.270;12.470;2022-07-22T22:40:45;101680.34;;;14.09;100.00
19236;BME280;9752;54.270;12.470;2022-07-22T22:45:47;101689.91;;;14.08;100.00
19236;BME280;9752;54.270;12.470;2022-07-22T22:50:48;101700.16;;;14.20;100.00
19236;BME280;9752;54.270;12.470;2022-07-22T22:55:51;101708.66;;;14.45;100.00
19236;BME280;9752;54.270;12.470;2022-07-22T23:00:53;101696.44;;;14.59;100.00
19236;BME280;9752;54.270;12.470;2022-07-22T23:05:56;101689.41;;;14.58;100.00
19236;BME280;9752;54.270;12.470;2022-07-22T23:10:59;101685.34;;;14.63;100.00
19236;BME280;9752;54.270;12.470;2022-07-22T23:16:00;101673.88;;;14.47;100.00
19236;BME280;9752;54.270;12.470;2022-07-22T23:21:02;101682.53;;;14.31;100.00
19236;BME280;9752;54.270;12.470;2022-07-22T23:26:06;101671.53;;;14.06;100.00
19236;BME280;9752;54.270;12.470;2022-07-22T23:31:08;101675.63;;;13.88;100.00
19236;BME280;9752;54.270;12.470;2022-07-22T23:36:10;101668.22;;;13.66;100.00
19236;BME280;9752;54.270;12.470;2022-07-22T23:41:13;101654.88;;;13.61;100.00
19236;BME280;9752;54.270;12.470;2022-07-22T23:46:15;101660.97;;;13.47;100.00
19236;BME280;9752;54.270;12.470;2022-07-22T23:51:17;101659.66;;;13.40;100.00
19236;BME280;9752;54.270;12.470;2022-07-22T23:56:20;101652.69;;;13.39;100.00
